WetterOnline ( https://www.wetteronline.de )

Wetter aktuell Delligsen

Aktuelles Wetter: Alfeld (148m)

6-stündlich | Neueste Meldungen
Ortszeit Temperatur Wetter
Mo, 17.06. 14:00 23.7° C fast wolkenlos
Mo, 17.06. 8:00 15.2° C wolkenlos
Mo, 17.06. 2:00 14.2° C bewölkt
So, 16.06. 20:00 17.8° C fast wolkenlos
So, 16.06. 14:00 19.2° C bewölkt
So, 16.06. 8:00 14.2° C leicht bewölkt
So, 16.06. 2:00 12.7° C wolkenlos
Sa, 15.06. 20:00 21.3° C wolkenlos
Ortszeit Temperatur Wetter
Mo, 17.06. 17:00 24.4° C wolkenlos
Mo, 17.06. 16:40 24.2° C wolkenlos
Mo, 17.06. 16:30 23.3° C fast wolkenlos
Mo, 17.06. 16:20 23.3° C fast wolkenlos
Mo, 17.06. 16:10 24.5° C fast wolkenlos
Mo, 17.06. 16:00 24.4° C fast wolkenlos
Mo, 17.06. 15:50 24.4° C wolkenlos
Mo, 17.06. 15:30 24.1° C fast wolkenlos
Mo, 17.06. 15:00 24.0° C wolkenlos
Mo, 17.06. 14:30 23.7° C fast wolkenlos
Mo, 17.06. 14:00 23.7° C fast wolkenlos
Mo, 17.06. 13:30 22.5° C leicht bewölkt
Ortszeit Relative Feuchte Sichtweite
Mo, 17.06. 14:00 56% 50 km
Mo, 17.06. 8:00 94% 11 km
Mo, 17.06. 2:00 97% 11 km
So, 16.06. 20:00 86% 45 km
So, 16.06. 14:00 66% 50 km
So, 16.06. 8:00 92% 21 km
So, 16.06. 2:00 95% 30 km
Sa, 15.06. 20:00 56% >70 km
Ortszeit Relative Feuchte Sichtweite
Mo, 17.06. 17:00 54% 30 km
Mo, 17.06. 16:40 54% -
Mo, 17.06. 16:30 58% 45 km
Mo, 17.06. 16:20 58% -
Mo, 17.06. 16:10 49% -
Mo, 17.06. 16:00 45% 60 km
Mo, 17.06. 15:50 45% -
Mo, 17.06. 15:30 50% 65 km
Mo, 17.06. 15:00 48% 50 km
Mo, 17.06. 14:30 53% >70 km
Mo, 17.06. 14:00 56% 50 km
Mo, 17.06. 13:30 55% 60 km
Ortszeit Niederschlagsmenge Niederschlagsart
Mo, 17.06. 14:00 0.1 l/m2 in 6 Std. Sprühregen
Mo, 17.06. 8:00 0.0 l/m2 in 12 Std. -
Mo, 17.06. 2:00 0.0 l/m2 in 6 Std. -
So, 16.06. 20:00 11 l/m2 in 12 Std. Regen
So, 16.06. 14:00 0.0 l/m2 in 6 Std. -
So, 16.06. 8:00 0.0 l/m2 in 12 Std. -
So, 16.06. 2:00 0.0 l/m2 in 6 Std. -
Sa, 15.06. 20:00 0.0 l/m2 in 12 Std. -
Ortszeit Niederschlagsmenge Niederschlagsart
Mo, 17.06. 17:00 0.0 l/m2 in 1 Std. -
Mo, 17.06. 16:40 keine Meldung -
Mo, 17.06. 16:30 0.0 l/m2 in 1 Std. -
Mo, 17.06. 16:20 keine Meldung -
Mo, 17.06. 16:10 keine Meldung -
Mo, 17.06. 16:00 0.0 l/m2 in 1 Std. -
Mo, 17.06. 15:50 keine Meldung -
Mo, 17.06. 15:30 0.0 l/m2 in 1 Std. -
Mo, 17.06. 15:00 0.0 l/m2 in 1 Std. -
Mo, 17.06. 14:30 0.0 l/m2 in 1 Std. -
Mo, 17.06. 14:00 0.0 l/m2 in 1 Std. Sprühregen
Mo, 17.06. 13:30 0.0 l/m2 in 1 Std. -
Ortszeit Stärke Spitze Richtung
km/h Bft. km/h Grad Sektor
Mo, 17.06. 14:00 11 2 18 120° SO
Mo, 17.06. 8:00 7 2 11 120° SO
Mo, 17.06. 2:00 4 1 14 150° SO
So, 16.06. 20:00 7 2 25 130° SO
So, 16.06. 14:00 11 2 22 170° S
So, 16.06. 8:00 4 1 11 120° SO
So, 16.06. 2:00 2 1 26 110° O
Sa, 15.06. 20:00 11 2 43 290° W
Ortszeit Stärke Spitze Richtung
km/h Bft. km/h Grad Sektor
Mo, 17.06. 17:00 13 3 19 100° O
Mo, 17.06. 16:40 7 2 - 110° O
Mo, 17.06. 16:30 13 3 19 120° SO
Mo, 17.06. 16:20 13 3 - 120° SO
Mo, 17.06. 16:10 7 2 - 100° O
Mo, 17.06. 16:00 7 2 18 110° O
Mo, 17.06. 15:50 7 2 - 110° O
Mo, 17.06. 15:30 11 2 18 120° SO
Mo, 17.06. 15:00 9 2 19 120° SO
Mo, 17.06. 14:30 11 2 18 120° SO
Mo, 17.06. 14:00 11 2 18 120° SO
Mo, 17.06. 13:30 9 2 19 110° O
Ortszeit Untergrenze Bedeckung Gattung
total tief tief mittel hoch
Mo, 17.06. 14:00 1440 m 1/8 1/8 - - -
Mo, 17.06. 8:00 - 0/8 0/8 - - -
Mo, 17.06. 2:00 2700 m 7/8 7/8 - - -
So, 16.06. 20:00 2700 m 1/8 1/8 - - -
So, 16.06. 14:00 1800 m 7/8 7/8 - - -
So, 16.06. 8:00 6900 m 4/8 4/8 - - -
So, 16.06. 2:00 - 0/8 0/8 - - -
Sa, 15.06. 20:00 1290 m 0/8 0/8 - - -
Ortszeit Bedeckungsgrad in Achtel und Wolkenuntergrenze
Mo, 17.06. 17:00 keine Wolken
Mo, 17.06. 16:40 keine Wolken
Mo, 17.06. 16:30 1(1500m)
Mo, 17.06. 16:20 1(1500m)
Mo, 17.06. 16:10 1(1500m)
Mo, 17.06. 16:00 2(1500m)
Mo, 17.06. 15:50 keine Wolken
Mo, 17.06. 15:30 1(1500m)
Mo, 17.06. 15:00 keine Wolken
Mo, 17.06. 14:30 1(1500m)
Mo, 17.06. 14:00 1(1440m)
Mo, 17.06. 13:30 2(1290m)
Ortszeit Luftdruck NN (hPa) Tendenz (hPa in 3 Std.)
Mo, 17.06. 14:00 1021 - 1,2
Mo, 17.06. 8:00 1023 + 0,4
Mo, 17.06. 2:00 1022 + 0,4
So, 16.06. 20:00 1021 + 0,1
So, 16.06. 14:00 1021 + 0,6
So, 16.06. 8:00 1019 + 1,1
So, 16.06. 2:00 1018 + 2,1
Sa, 15.06. 20:00 1014 + 0,9
Ortszeit Luftdruck NN (hPa) Tendenz (hPa in 3 Std.)
Mo, 17.06. 17:00 1020 - 1,1
Mo, 17.06. 16:40 1020 keine Meldung
Mo, 17.06. 16:30 1020 - 1,0
Mo, 17.06. 16:20 1020 keine Meldung
Mo, 17.06. 16:10 1020 keine Meldung
Mo, 17.06. 16:00 1020 - 0,9
Mo, 17.06. 15:50 1020 keine Meldung
Mo, 17.06. 15:30 1020 - 1,0
Mo, 17.06. 15:00 1021 - 1,0
Mo, 17.06. 14:30 1021 - 1,0
Mo, 17.06. 14:00 1021 - 1,2
Mo, 17.06. 13:30 1021 - 1,2
Ortszeit Schneehöhe (cm)
Mo, 17.06. 14:00 -
Mo, 17.06. 8:00 -
Mo, 17.06. 2:00 -
So, 16.06. 20:00 -
So, 16.06. 14:00 -
So, 16.06. 8:00 -
So, 16.06. 2:00 -
Sa, 15.06. 20:00 -
Ortszeit Schneehöhe (cm)
Mo, 17.06. 17:00 -
Mo, 17.06. 16:40 -
Mo, 17.06. 16:30 -
Mo, 17.06. 16:20 -
Mo, 17.06. 16:10 -
Mo, 17.06. 16:00 -
Mo, 17.06. 15:50 -
Mo, 17.06. 15:30 -
Mo, 17.06. 15:00 -
Mo, 17.06. 14:30 -
Mo, 17.06. 14:00 -
Mo, 17.06. 13:30 -
Link zu dieser Seite / Seite empfehlen

Das Wetter in ...